Time;durP1;ratioP1;P1;durP2;ratioP2;P2;SDS_P1;SDS_P2;PMS_P1;PMS_P2;Temp;Humidity;BMP_temperature;BMP_pressure;BME280_temperature;BME280_humidity;BME280_pressure;Samples;Min_cycle;Max_cycle;Signal;HPM_P1;HPM_P2
2022/06/28 00:02:22;;;;;;;38.58;9.05;;;;;;;;;;4993982;28;20061;-70
2022/06/28 00:05:26;;;;;;;46.10;8.85;;;;;;;;;;4993729;28;20054;-70
2022/06/28 00:08:31;;;;;;;34.00;8.65;;;;;;;;;;4993956;28;20534;-70
2022/06/28 00:11:35;;;;;;;38.47;8.20;;;;;;;;;;4993792;28;20042;-69
2022/06/28 00:18:02;;;;;;;35.65;8.93;;;;;;;;;;4994040;28;20517;-70
2022/06/28 00:21:07;;;;;;;36.50;8.27;;;;;;;;;;4993602;28;20041;-69
2022/06/28 00:24:11;;;;;;;45.15;9.07;;;;;;;;;;4993729;28;20038;-70
2022/06/28 00:27:17;;;;;;;41.08;8.55;;;;;;;;;;4993823;28;20047;-70
2022/06/28 00:30:22;;;;;;;51.78;10.23;;;;;;;;;;4992820;28;20042;-69
2022/06/28 00:33:26;;;;;;;34.33;8.18;;;;;;;;;;4992490;28;20049;-69
2022/06/28 00:36:32;;;;;;;39.05;8.77;;;;;;;;;;4993457;28;20429;-70
2022/06/28 00:39:36;;;;;;;43.97;8.68;;;;;;;;;;4993708;28;20525;-69
2022/06/28 00:42:40;;;;;;;39.38;8.70;;;;;;;;;;4993253;28;20042;-69
2022/06/28 00:45:46;;;;;;;42.67;8.88;;;;;;;;;;4993013;28;20449;-70
2022/06/28 00:48:50;;;;;;;33.28;8.18;;;;;;;;;;4992361;28;20034;-69
2022/06/28 00:51:57;;;;;;;45.78;8.55;;;;;;;;;;4992248;28;20071;-69
2022/06/28 00:55:01;;;;;;;50.17;8.98;;;;;;;;;;4992534;28;20057;-70
2022/06/28 00:58:06;;;;;;;36.00;8.32;;;;;;;;;;4993247;28;20505;-70
2022/06/28 01:01:10;;;;;;;44.65;9.40;;;;;;;;;;4993112;28;20042;-70
2022/06/28 01:04:15;;;;;;;44.05;10.68;;;;;;;;;;4992173;28;20187;-69
2022/06/28 01:07:20;;;;;;;43.90;10.50;;;;;;;;;;4992263;28;20061;-69
2022/06/28 01:10:26;;;;;;;32.42;10.27;;;;;;;;;;4992874;28;20045;-69
2022/06/28 01:13:30;;;;;;;41.20;8.98;;;;;;;;;;4991885;28;20602;-70
2022/06/28 01:16:35;;;;;;;37.78;9.02;;;;;;;;;;4991700;28;20041;-70
2022/06/28 01:19:49;;;;;;;45.95;8.98;;;;;;;;;;4991880;28;20038;-69
2022/06/28 01:23:08;;;;;;;46.03;9.13;;;;;;;;;;4990820;28;20049;-69
2022/06/28 01:26:16;;;;;;;42.40;8.65;;;;;;;;;;4991364;28;20131;-69
2022/06/28 01:29:23;;;;;;;40.37;9.13;;;;;;;;;;4991608;28;20038;-70
2022/06/28 01:32:42;;;;;;;41.67;9.02;;;;;;;;;;4991347;28;20282;-69
2022/06/28 01:35:49;;;;;;;39.25;8.98;;;;;;;;;;4992368;28;20036;-69
2022/06/28 01:38:54;;;;;;;42.08;8.95;;;;;;;;;;4991292;28;20034;-70
2022/06/28 01:41:59;;;;;;;42.92;9.25;;;;;;;;;;4991627;28;20034;-70
2022/06/28 01:45:06;;;;;;;39.72;9.50;;;;;;;;;;4979868;28;20035;-69
2022/06/28 01:48:17;;;;;;;33.65;9.07;;;;;;;;;;4991481;28;20039;-69
2022/06/28 01:51:39;;;;;;;30.35;8.82;;;;;;;;;;4991485;28;20393;-70
2022/06/28 01:54:45;;;;;;;34.50;8.43;;;;;;;;;;4991353;28;20034;-69
2022/06/28 01:57:50;;;;;;;38.35;9.45;;;;;;;;;;4991148;28;20049;-69
2022/06/28 02:00:54;;;;;;;49.88;9.70;;;;;;;;;;4990960;28;20049;-69
2022/06/28 02:03:59;;;;;;;37.17;8.20;;;;;;;;;;4990894;28;20065;-69
2022/06/28 02:07:14;;;;;;;52.42;9.40;;;;;;;;;;4990824;28;20054;-69
2022/06/28 02:10:19;;;;;;;52.17;8.90;;;;;;;;;;4990729;28;20041;-69
2022/06/28 02:13:24;;;;;;;39.42;9.05;;;;;;;;;;4991073;28;20118;-69
2022/06/28 02:16:29;;;;;;;41.72;9.00;;;;;;;;;;4990881;28;20042;-70
2022/06/28 02:19:33;;;;;;;37.92;9.23;;;;;;;;;;4990832;28;20038;-70
2022/06/28 02:22:38;;;;;;;33.78;9.25;;;;;;;;;;4990867;28;20030;-69
2022/06/28 02:25:42;;;;;;;37.35;8.93;;;;;;;;;;4990761;28;20042;-69
2022/06/28 02:28:47;;;;;;;44.00;8.90;;;;;;;;;;4991320;28;20045;-69
2022/06/28 02:31:54;;;;;;;40.25;10.07;;;;;;;;;;4990860;28;20045;-69
2022/06/28 02:41:45;;;;;;;48.17;9.38;;;;;;;;;;4996922;28;20050;-70
2022/06/28 02:44:49;;;;;;;43.70;10.10;;;;;;;;;;4997151;28;20036;-69
2022/06/28 02:47:53;;;;;;;38.47;9.15;;;;;;;;;;4997389;28;20053;-69
2022/06/28 02:50:57;;;;;;;40.60;8.93;;;;;;;;;;4998096;28;20046;-69
2022/06/28 02:54:02;;;;;;;42.30;9.55;;;;;;;;;;4997618;28;20034;-69
2022/06/28 02:57:06;;;;;;;37.95;9.00;;;;;;;;;;4985910;28;20033;-69
2022/06/28 03:00:12;;;;;;;41.90;8.98;;;;;;;;;;4997375;28;20051;-69
2022/06/28 03:03:16;;;;;;;50.83;9.57;;;;;;;;;;4985619;28;20598;-69
2022/06/28 03:06:21;;;;;;;43.47;9.32;;;;;;;;;;4997473;28;20386;-69
2022/06/28 03:09:25;;;;;;;35.80;9.50;;;;;;;;;;4997054;28;20035;-70
2022/06/28 03:12:30;;;;;;;41.85;9.05;;;;;;;;;;4997613;28;20050;-70
2022/06/28 03:15:34;;;;;;;40.22;9.45;;;;;;;;;;4996604;28;20046;-70
2022/06/28 03:18:38;;;;;;;46.30;9.65;;;;;;;;;;4996729;28;20038;-69
2022/06/28 03:21:43;;;;;;;46.65;9.32;;;;;;;;;;4997645;28;20038;-69
2022/06/28 03:24:47;;;;;;;38.65;8.85;;;;;;;;;;4996833;28;20038;-69
2022/06/28 03:27:51;;;;;;;42.65;9.95;;;;;;;;;;4996593;28;20695;-70
2022/06/28 03:30:56;;;;;;;46.40;10.25;;;;;;;;;;4985858;28;20049;-69
2022/06/28 03:34:01;;;;;;;47.35;8.95;;;;;;;;;;4996672;28;20393;-69
2022/06/28 03:37:05;;;;;;;49.78;9.70;;;;;;;;;;4997257;28;20042;-69
2022/06/28 03:40:16;;;;;;;51.78;10.73;;;;;;;;;;4996633;28;20403;-69
2022/06/28 03:43:25;;;;;;;43.47;10.00;;;;;;;;;;4996814;28;20103;-69
2022/06/28 03:46:32;;;;;;;42.47;9.75;;;;;;;;;;4992673;28;20053;-69
2022/06/28 03:49:55;;;;;;;39.25;9.77;;;;;;;;;;4993655;28;20394;-69
2022/06/28 03:53:18;;;;;;;44.53;9.93;;;;;;;;;;4994193;28;20038;-70
2022/06/28 03:56:39;;;;;;;52.20;10.05;;;;;;;;;;4993706;28;20046;-70
2022/06/28 03:59:43;;;;;;;41.17;10.38;;;;;;;;;;4993515;28;20041;-70
2022/06/28 04:02:48;;;;;;;53.10;9.90;;;;;;;;;;4993434;28;20049;-70
2022/06/28 04:05:58;;;;;;;52.33;9.60;;;;;;;;;;4993979;28;20055;-69
2022/06/28 04:09:03;;;;;;;56.45;10.65;;;;;;;;;;4994206;28;20050;-69
2022/06/28 04:12:08;;;;;;;49.53;10.98;;;;;;;;;;4993388;28;20050;-70
2022/06/28 04:15:14;;;;;;;71.00;14.32;;;;;;;;;;4993248;28;20093;-69
2022/06/28 04:18:18;;;;;;;68.28;13.93;;;;;;;;;;4993276;28;20049;-69
2022/06/28 04:21:41;;;;;;;61.47;13.85;;;;;;;;;;4993904;28;20046;-70
2022/06/28 04:24:47;;;;;;;81.20;13.45;;;;;;;;;;4993610;28;20049;-69
2022/06/28 04:27:57;;;;;;;60.83;12.50;;;;;;;;;;4992956;28;20049;-69
2022/06/28 04:31:01;;;;;;;65.28;12.50;;;;;;;;;;4993817;28;20043;-70
2022/06/28 04:34:06;;;;;;;48.83;10.82;;;;;;;;;;4994523;28;20037;-69
2022/06/28 04:37:15;;;;;;;137.85;16.85;;;;;;;;;;4992888;28;20061;-69
2022/06/28 04:40:21;;;;;;;61.78;10.63;;;;;;;;;;4992688;28;20516;-69
2022/06/28 04:43:37;;;;;;;48.50;9.40;;;;;;;;;;4992886;28;20049;-69
2022/06/28 04:46:41;;;;;;;48.72;11.05;;;;;;;;;;4992409;28;20515;-69
2022/06/28 04:49:52;;;;;;;56.63;13.98;;;;;;;;;;4992746;28;20397;-69
2022/06/28 04:52:56;;;;;;;53.92;15.95;;;;;;;;;;4993391;28;20061;-69
2022/06/28 04:56:01;;;;;;;52.67;15.40;;;;;;;;;;4991916;28;20045;-69
2022/06/28 04:59:06;;;;;;;54.67;15.75;;;;;;;;;;4992426;28;20061;-70
2022/06/28 05:02:10;;;;;;;39.45;11.43;;;;;;;;;;4993204;28;20045;-70
2022/06/28 05:05:15;;;;;;;53.75;11.75;;;;;;;;;;4992702;28;20053;-70
2022/06/28 05:08:20;;;;;;;70.63;11.95;;;;;;;;;;4992147;28;20049;-70
2022/06/28 05:11:33;;;;;;;74.68;12.90;;;;;;;;;;4991772;28;20049;-70
2022/06/28 05:14:47;;;;;;;95.50;13.50;;;;;;;;;;4991989;28;20053;-70
2022/06/28 05:17:53;;;;;;;80.63;13.40;;;;;;;;;;4992147;28;20041;-70
2022/06/28 05:20:57;;;;;;;50.03;11.35;;;;;;;;;;4992255;28;20144;-70
2022/06/28 05:24:03;;;;;;;57.00;10.68;;;;;;;;;;4991956;28;20232;-70
2022/06/28 05:27:19;;;;;;;58.50;10.00;;;;;;;;;;4991786;28;20520;-66
2022/06/28 05:30:23;;;;;;;47.65;10.73;;;;;;;;;;4991724;28;20613;-66
2022/06/28 05:33:27;;;;;;;60.70;10.85;;;;;;;;;;4991663;28;20045;-66
2022/06/28 05:36:32;;;;;;;55.38;10.43;;;;;;;;;;4991742;28;20042;-66
2022/06/28 05:39:36;;;;;;;50.50;11.25;;;;;;;;;;4992736;28;20110;-66
2022/06/28 05:42:41;;;;;;;62.60;10.75;;;;;;;;;;4991938;28;20494;-66
2022/06/28 05:45:46;;;;;;;57.22;10.93;;;;;;;;;;4991663;28;20049;-66
2022/06/28 05:48:50;;;;;;;59.63;10.98;;;;;;;;;;4991811;28;20049;-66
2022/06/28 05:51:55;;;;;;;51.47;10.73;;;;;;;;;;4992529;28;20049;-66
2022/06/28 05:54:59;;;;;;;51.78;10.20;;;;;;;;;;4991561;28;20053;-66
2022/06/28 05:58:03;;;;;;;63.42;10.90;;;;;;;;;;4991252;28;20042;-67
2022/06/28 06:01:07;;;;;;;64.03;10.20;;;;;;;;;;4991628;28;20041;-66
2022/06/28 06:04:12;;;;;;;41.22;10.38;;;;;;;;;;4992271;28;20516;-66
2022/06/28 06:07:17;;;;;;;59.90;10.60;;;;;;;;;;4989928;28;20438;-66
2022/06/28 06:10:23;;;;;;;63.00;11.50;;;;;;;;;;4989883;28;20505;-66
2022/06/28 06:13:27;;;;;;;54.92;10.43;;;;;;;;;;4991474;28;20045;-66
2022/06/28 06:16:31;;;;;;;47.67;11.23;;;;;;;;;;4989866;28;20053;-65
2022/06/28 06:19:36;;;;;;;57.40;11.75;;;;;;;;;;4991209;28;20041;-66
2022/06/28 06:22:40;;;;;;;56.55;11.25;;;;;;;;;;4990724;28;20049;-67
2022/06/28 06:26:04;;;;;;;50.72;10.98;;;;;;;;;;4991410;28;20045;-66
2022/06/28 06:29:09;;;;;;;48.88;10.00;;;;;;;;;;4980314;28;20049;-67
2022/06/28 06:32:13;;;;;;;48.92;10.05;;;;;;;;;;4991219;28;20037;-66
2022/06/28 06:35:35;;;;;;;60.30;10.60;;;;;;;;;;4991446;28;20046;-66
2022/06/28 06:38:39;;;;;;;62.85;10.73;;;;;;;;;;4990725;28;20080;-66
2022/06/28 06:41:45;;;;;;;53.55;11.55;;;;;;;;;;4990718;28;20046;-65
2022/06/28 06:44:49;;;;;;;48.35;9.95;;;;;;;;;;4991609;28;20046;-66
2022/06/28 06:47:54;;;;;;;49.47;11.23;;;;;;;;;;4990548;28;20050;-66
2022/06/28 06:50:59;;;;;;;50.63;12.25;;;;;;;;;;4990599;28;20050;-67
2022/06/28 06:54:03;;;;;;;46.50;11.55;;;;;;;;;;4991658;28;20053;-66
2022/06/28 06:57:08;;;;;;;65.10;11.77;;;;;;;;;;4990915;28;20057;-66
2022/06/28 07:00:13;;;;;;;68.05;12.02;;;;;;;;;;4990809;28;20398;-66
2022/06/28 07:03:17;;;;;;;49.83;11.70;;;;;;;;;;4990802;28;20040;-66
2022/06/28 07:06:22;;;;;;;57.90;11.43;;;;;;;;;;4990241;28;20053;-67
2022/06/28 07:09:26;;;;;;;56.70;10.50;;;;;;;;;;4990471;28;20041;-66
2022/06/28 07:12:31;;;;;;;52.33;10.77;;;;;;;;;;4989994;28;20054;-66
2022/06/28 07:15:35;;;;;;;52.03;10.70;;;;;;;;;;4990286;28;20041;-66
2022/06/28 07:18:40;;;;;;;57.30;10.63;;;;;;;;;;4990236;28;20049;-65
2022/06/28 07:21:44;;;;;;;51.05;9.63;;;;;;;;;;4994553;28;20045;-67
2022/06/28 07:24:50;;;;;;;52.72;11.55;;;;;;;;;;4993826;28;20042;-66
2022/06/28 07:27:54;;;;;;;52.08;10.65;;;;;;;;;;4993789;28;20065;-66
2022/06/28 07:30:59;;;;;;;48.65;10.15;;;;;;;;;;4993880;28;20057;-66
2022/06/28 08:43:47;;;;;;;38.40;8.15;;;;;;;;;;2065721;28;23085;-65
2022/06/28 08:46:52;;;;;;;40.03;7.88;;;;;;;;;;4954413;29;20116;-67
2022/06/28 08:50:07;;;;;;;39.13;8.38;;;;;;;;;;4954606;29;20046;-67
2022/06/28 08:53:11;;;;;;;38.72;8.82;;;;;;;;;;4954403;29;20039;-67
2022/06/28 08:56:16;;;;;;;31.08;7.93;;;;;;;;;;4954798;29;20050;-68
2022/06/28 08:59:22;;;;;;;35.03;8.52;;;;;;;;;;4954342;29;20116;-67
2022/06/28 09:02:26;;;;;;;43.40;8.00;;;;;;;;;;4954754;29;20059;-68
2022/06/28 09:05:31;;;;;;;39.97;8.75;;;;;;;;;;4954444;29;20066;-67
2022/06/28 09:08:35;;;;;;;41.20;9.00;;;;;;;;;;4953564;29;20515;-67
2022/06/28 09:11:42;;;;;;;41.95;7.75;;;;;;;;;;4953957;29;20395;-67
2022/06/28 09:14:47;;;;;;;55.47;7.50;;;;;;;;;;4953817;29;20054;-68
2022/06/28 09:17:55;;;;;;;39.25;7.95;;;;;;;;;;4953863;29;20043;-67
2022/06/28 09:20:59;;;;;;;32.95;6.93;;;;;;;;;;4954186;29;20515;-67
2022/06/28 09:24:03;;;;;;;35.42;7.78;;;;;;;;;;4952923;29;20467;-67
2022/06/28 09:27:07;;;;;;;36.50;7.90;;;;;;;;;;4953512;29;20063;-67
2022/06/28 09:30:13;;;;;;;44.67;8.13;;;;;;;;;;4953650;29;20047;-67
2022/06/28 09:33:28;;;;;;;33.40;7.47;;;;;;;;;;4953481;29;20043;-67
2022/06/28 09:36:32;;;;;;;34.65;7.05;;;;;;;;;;4953655;29;20048;-66
2022/06/28 09:39:36;;;;;;;36.88;6.78;;;;;;;;;;4954396;29;20514;-67
2022/06/28 09:42:42;;;;;;;42.03;8.20;;;;;;;;;;4953110;28;20035;-66
2022/06/28 09:45:47;;;;;;;28.35;7.55;;;;;;;;;;4985930;28;20066;-67
2022/06/28 09:48:51;;;;;;;33.78;6.93;;;;;;;;;;4993056;28;20058;-67
2022/06/28 09:51:57;;;;;;;34.35;6.90;;;;;;;;;;4993070;28;20038;-67
2022/06/28 09:55:02;;;;;;;40.20;7.28;;;;;;;;;;4992744;28;20041;-67
2022/06/28 09:58:06;;;;;;;52.35;9.70;;;;;;;;;;4992672;28;20067;-66
2022/06/28 10:01:10;;;;;;;35.38;7.70;;;;;;;;;;4992949;28;20038;-67
2022/06/28 10:04:15;;;;;;;34.28;8.13;;;;;;;;;;4992807;28;20042;-67
2022/06/28 10:07:23;;;;;;;49.08;9.02;;;;;;;;;;4992702;28;20470;-66
2022/06/28 10:10:27;;;;;;;43.22;8.30;;;;;;;;;;4992447;28;20042;-66
2022/06/28 10:17:05;;;;;;;51.38;9.93;;;;;;;;;;4992105;28;20050;-67
2022/06/28 10:20:11;;;;;;;47.03;8.45;;;;;;;;;;4992221;28;20046;-67
2022/06/28 10:23:36;;;;;;;44.05;8.27;;;;;;;;;;4992502;28;20367;-67
2022/06/28 10:26:45;;;;;;;47.83;8.52;;;;;;;;;;4992452;28;20038;-67
2022/06/28 10:29:58;;;;;;;41.58;8.73;;;;;;;;;;4991214;28;20046;-65
2022/06/28 10:33:13;;;;;;;44.78;8.10;;;;;;;;;;4992439;28;20383;-66
2022/06/28 10:36:19;;;;;;;58.83;9.38;;;;;;;;;;4992238;28;20371;-67
2022/06/28 10:39:25;;;;;;;57.33;9.48;;;;;;;;;;4992583;28;20053;-68
2022/06/28 10:42:47;;;;;;;49.25;8.60;;;;;;;;;;4991862;28;20042;-66
2022/06/28 10:46:04;;;;;;;38.85;8.18;;;;;;;;;;4991624;28;20053;-66
2022/06/28 10:49:09;;;;;;;52.55;8.15;;;;;;;;;;4992229;28;20050;-67
2022/06/28 10:52:15;;;;;;;41.15;7.90;;;;;;;;;;4992086;28;20069;-67
2022/06/28 10:55:19;;;;;;;42.03;8.65;;;;;;;;;;4995241;28;20046;-66
2022/06/28 10:58:24;;;;;;;44.88;8.27;;;;;;;;;;4995895;28;20478;-68
2022/06/28 11:01:42;;;;;;;53.90;8.52;;;;;;;;;;4995166;28;20505;-69
2022/06/28 11:04:47;;;;;;;47.65;8.68;;;;;;;;;;4995764;28;20059;-69
2022/06/28 11:07:57;;;;;;;45.40;7.72;;;;;;;;;;4995442;28;20046;-68
2022/06/28 11:11:05;;;;;;;60.80;9.00;;;;;;;;;;4995827;28;20051;-68
2022/06/28 11:14:45;;;;;;;44.05;9.02;;;;;;;;;;4995937;28;20499;-68
2022/06/28 11:17:50;;;;;;;44.25;8.95;;;;;;;;;;4938452;28;20059;-68
2022/06/28 11:20:54;;;;;;;41.90;9.50;;;;;;;;;;4995464;28;20042;-68
2022/06/28 11:23:58;;;;;;;57.42;10.65;;;;;;;;;;4995301;28;20409;-69
2022/06/28 11:30:27;;;;;;;46.97;9.55;;;;;;;;;;4995267;28;20063;-68
2022/06/28 11:33:32;;;;;;;46.50;11.20;;;;;;;;;;4995139;28;20050;-68
2022/06/28 11:36:38;;;;;;;50.47;9.13;;;;;;;;;;4995330;28;20045;-68
2022/06/28 11:39:42;;;;;;;59.67;11.45;;;;;;;;;;4995029;28;20042;-68
2022/06/28 11:42:47;;;;;;;60.58;10.18;;;;;;;;;;4994766;28;20045;-68
2022/06/28 11:45:55;;;;;;;57.53;10.55;;;;;;;;;;4994704;28;20053;-68
2022/06/28 11:48:59;;;;;;;46.13;10.20;;;;;;;;;;4995395;28;20524;-68
2022/06/28 11:52:04;;;;;;;52.85;9.80;;;;;;;;;;4994817;28;20037;-68
2022/06/28 11:55:08;;;;;;;45.83;9.85;;;;;;;;;;4995301;28;20049;-68
2022/06/28 13:04:53;;;;;;;32.53;9.32;;;40.80;42.00;;;;;;5108585;27;20372;-70
2022/06/28 13:07:57;;;;;;;55.13;11.70;;;39.80;42.80;;;;;;5108853;28;20043;-71
2022/06/28 13:11:01;;;;;;;35.92;10.25;;;39.50;42.80;;;;;;5108987;28;20047;-70
2022/06/28 13:14:06;;;;;;;42.53;11.85;;;39.30;43.40;;;;;;5108331;28;20529;-70
2022/06/28 13:17:10;;;;;;;40.67;9.15;;;39.10;43.30;;;;;;5108679;28;20043;-70
2022/06/28 13:20:14;;;;;;;33.20;9.88;;;39.00;44.10;;;;;;5108400;28;20616;-70
2022/06/28 13:23:20;;;;;;;50.65;11.65;;;38.90;44.00;;;;;;5108340;28;20039;-69
2022/06/28 13:26:24;;;;;;;34.85;8.93;;;38.80;43.80;;;;;;5108199;28;20394;-70
2022/06/28 13:29:28;;;;;;;36.20;9.60;;;38.70;43.20;;;;;;5108517;28;20047;-70
2022/06/28 13:32:35;;;;;;;31.38;8.15;;;38.60;43.30;;;;;;5108264;28;20046;-70
2022/06/28 13:35:43;;;;;;;38.53;8.90;;;38.60;43.90;;;;;;5108505;28;20054;-70
2022/06/28 13:38:47;;;;;;;34.08;9.63;;;38.50;43.60;;;;;;5108357;28;20039;-70
2022/06/28 13:41:51;;;;;;;37.47;10.10;;;38.50;43.30;;;;;;5108121;28;20051;-70
2022/06/28 13:44:55;;;;;;;49.83;10.80;;;38.50;43.00;;;;;;5107817;28;20059;-70
2022/06/28 13:47:59;;;;;;;56.50;11.45;;;38.40;43.00;;;;;;5108023;28;20039;-70
2022/06/28 14:01:46;;;;;;;51.72;10.95;;;38.40;42.40;;;;;;5108433;27;20399;-71
2022/06/28 14:04:52;;;;;;;49.40;10.95;;;38.40;43.30;;;;;;5108092;28;20036;-69
2022/06/28 14:07:56;;;;;;;39.30;10.50;;;38.30;42.60;;;;;;5107853;28;20043;-69
2022/06/28 14:11:00;;;;;;;54.45;11.50;;;38.30;42.50;;;;;;5107907;28;20553;-71
2022/06/28 14:14:04;;;;;;;41.85;10.70;;;38.20;41.40;;;;;;5095512;28;20039;-66
2022/06/28 14:17:07;;;;;;;42.13;11.80;;;38.10;41.20;;;;;;5108093;28;20054;-67
2022/06/28 14:20:12;;;;;;;37.88;12.10;;;38.10;41.10;;;;;;5107897;28;20043;-68
2022/06/28 14:23:19;;;;;;;42.03;14.57;;;38.00;41.10;;;;;;5108161;28;20142;-68
2022/06/28 14:38:04;;;;;;;62.30;15.75;;;37.80;40.00;;;;;;5087913;28;20399;-69
2022/06/28 14:41:09;;;;;;;47.13;14.90;;;39.30;38.60;;;;;;5088258;28;20360;-68
2022/06/28 14:44:13;;;;;;;58.35;14.02;;;39.60;38.30;;;;;;5088889;28;20047;-70
2022/06/28 14:47:17;;;;;;;49.88;14.15;;;40.10;38.40;;;;;;5088064;28;20059;-70
2022/06/28 14:50:21;;;;;;;50.75;12.60;;;40.20;37.70;;;;;;5088674;28;20047;-67
2022/06/28 14:53:26;;;;;;;52.97;12.18;;;40.10;37.80;;;;;;5087136;28;20055;-67
2022/06/28 14:56:30;;;;;;;58.40;13.55;;;40.10;37.90;;;;;;5086851;28;20044;-69
2022/06/28 14:59:34;;;;;;;42.78;10.95;;;40.30;37.50;;;;;;5088048;28;20048;-67
2022/06/28 15:02:39;;;;;;;63.50;11.93;;;40.50;36.60;;;;;;5087906;28;20055;-68
2022/06/28 15:05:44;;;;;;;41.03;9.90;;;40.70;37.30;;;;;;5087571;28;20043;-67
2022/06/28 15:08:49;;;;;;;37.03;9.02;;;40.80;35.90;;;;;;5087482;28;20522;-68
2022/06/28 15:11:56;;;;;;;34.22;8.68;;;41.00;34.70;;;;;;5087692;28;20399;-68
2022/06/28 15:15:03;;;;;;;43.35;10.07;;;41.10;35.50;;;;;;5086564;28;20047;-68
2022/06/28 15:18:10;;;;;;;34.95;8.60;;;41.40;34.90;;;;;;5087419;28;20055;-67
2022/06/28 15:31:37;;;;;;;39.97;8.00;;;42.20;33.20;;;;;;5067017;28;20048;-68
2022/06/28 15:34:41;;;;;;;32.67;8.45;;;42.30;32.80;;;;;;5067021;28;20039;-68
2022/06/28 15:37:45;;;;;;;48.28;10.02;;;42.20;33.00;;;;;;5060016;28;20048;-69
2022/06/28 15:40:50;;;;;;;47.08;11.35;;;42.10;33.20;;;;;;5053651;28;20067;-70
2022/06/28 15:43:55;;;;;;;41.78;10.23;;;42.00;34.40;;;;;;5053653;28;20464;-69
2022/06/28 15:46:59;;;;;;;52.38;11.10;;;41.90;34.30;;;;;;5053227;28;20072;-68
2022/06/28 15:50:03;;;;;;;50.88;11.43;;;42.10;35.00;;;;;;5053550;28;20104;-67
2022/06/28 15:53:08;;;;;;;52.08;12.68;;;41.80;35.20;;;;;;5053105;28;20511;-66
2022/06/28 15:56:12;;;;;;;40.17;11.45;;;41.80;34.70;;;;;;5053391;28;20036;-66
2022/06/28 15:59:16;;;;;;;51.53;11.85;;;41.70;34.80;;;;;;5041235;28;20064;-67
2022/06/28 16:02:20;;;;;;;49.65;13.00;;;41.20;34.90;;;;;;5053137;28;20052;-69
2022/06/28 16:05:24;;;;;;;52.90;12.65;;;41.20;35.30;;;;;;5053257;28;20056;-70
2022/06/28 16:08:28;;;;;;;57.35;13.45;;;41.50;35.00;;;;;;5053278;28;20396;-67
2022/06/28 16:11:33;;;;;;;53.20;13.25;;;41.40;34.70;;;;;;5052779;28;20040;-66
2022/06/28 16:14:37;;;;;;;49.78;12.73;;;41.30;34.90;;;;;;5052875;28;20047;-67
2022/06/28 16:17:42;;;;;;;57.17;14.80;;;41.30;35.00;;;;;;5052913;28;20044;-67
2022/06/28 16:20:46;;;;;;;58.33;13.52;;;41.30;35.20;;;;;;5053057;28;20392;-68
2022/06/28 16:23:50;;;;;;;46.40;11.30;;;41.40;35.30;;;;;;5040959;28;20044;-67
2022/06/28 16:26:54;;;;;;;44.28;10.70;;;41.30;33.70;;;;;;5052587;28;20052;-67
2022/06/28 16:29:59;;;;;;;47.03;9.52;;;41.20;33.90;;;;;;5052759;28;20490;-67
2022/06/28 16:33:05;;;;;;;37.65;8.90;;;41.40;33.60;;;;;;5052384;28;20049;-70
2022/06/28 16:36:09;;;;;;;38.40;8.85;;;41.50;33.00;;;;;;5051670;28;20052;-68
2022/06/28 16:39:13;;;;;;;28.40;7.28;;;41.50;32.40;;;;;;5052268;28;20044;-67
2022/06/28 16:42:17;;;;;;;38.05;8.35;;;41.60;32.40;;;;;;5052292;28;20055;-67
2022/06/28 16:45:21;;;;;;;37.85;7.90;;;41.30;33.20;;;;;;5052043;28;20052;-68
2022/06/28 16:48:25;;;;;;;36.85;7.05;;;40.50;33.30;;;;;;5052238;28;20431;-68
2022/06/28 16:51:29;;;;;;;36.55;8.00;;;40.00;33.20;;;;;;5052360;28;20044;-67
2022/06/28 16:54:33;;;;;;;38.25;8.73;;;39.50;34.20;;;;;;5052104;28;20052;-68
2022/06/28 16:57:40;;;;;;;35.00;11.18;;;39.10;35.10;;;;;;5051001;28;20063;-67
2022/06/28 17:00:44;;;;;;;50.20;12.35;;;38.80;36.80;;;;;;5051760;28;20036;-67
2022/06/28 17:03:49;;;;;;;55.00;13.75;;;38.50;37.60;;;;;;5052192;28;20048;-68
2022/06/28 17:10:15;;;;;;;42.10;12.80;;;37.70;40.60;;;;;;5051848;28;20044;-66
2022/06/28 17:13:19;;;;;;;53.83;11.82;;;37.30;43.00;;;;;;5052065;28;20063;-68
2022/06/28 17:16:24;;;;;;;45.80;11.52;;;37.00;43.50;;;;;;5051873;28;20048;-67
2022/06/28 17:19:29;;;;;;;51.17;11.75;;;36.80;44.40;;;;;;5051713;28;20048;-67
2022/06/28 17:22:33;;;;;;;40.20;10.85;;;36.50;45.40;;;;;;5051937;28;20048;-67
2022/06/28 17:25:37;;;;;;;49.72;11.55;;;36.30;45.80;;;;;;5039591;28;20048;-67
2022/06/28 17:28:41;;;;;;;44.78;10.90;;;36.10;46.90;;;;;;5050760;28;20056;-67
2022/06/28 17:31:45;;;;;;;50.88;11.43;;;36.00;47.50;;;;;;5051465;28;20044;-67
2022/06/28 17:34:49;;;;;;;44.53;10.70;;;35.80;48.50;;;;;;5051754;28;20056;-68
2022/06/28 17:37:53;;;;;;;51.40;11.30;;;35.70;49.30;;;;;;5051133;28;20056;-67
2022/06/28 17:40:57;;;;;;;45.90;11.38;;;35.60;50.20;;;;;;5051510;28;20421;-68
2022/06/28 17:44:01;;;;;;;43.00;10.63;;;35.50;50.90;;;;;;5051492;28;20052;-68
2022/06/28 17:47:05;;;;;;;43.67;10.63;;;35.30;51.20;;;;;;5051350;28;20060;-67
2022/06/28 17:50:10;;;;;;;39.55;11.95;;;35.20;50.60;;;;;;5051627;28;20040;-67
2022/06/28 17:53:15;;;;;;;51.80;14.65;;;35.10;51.40;;;;;;5051438;28;20051;-66
2022/06/28 17:56:19;;;;;;;51.85;14.30;;;35.00;55.80;;;;;;5049724;28;20052;-67
2022/06/28 17:59:23;;;;;;;48.08;15.93;;;34.90;57.00;;;;;;5051305;28;20064;-66
2022/06/28 18:02:27;;;;;;;49.88;15.15;;;34.90;61.10;;;;;;5051058;28;20064;-67
2022/06/28 18:05:31;;;;;;;47.45;13.63;;;34.80;66.30;;;;;;5050961;28;20056;-67
2022/06/28 18:08:36;;;;;;;51.35;13.02;;;34.60;66.30;;;;;;5050780;28;20048;-68
2022/06/28 18:11:41;;;;;;;44.70;11.07;;;34.40;67.00;;;;;;5050982;28;20044;-67
2022/06/28 18:14:48;;;;;;;49.30;11.60;;;34.20;67.10;;;;;;5050761;28;20044;-68
2022/06/28 18:17:52;;;;;;;51.28;10.68;;;34.00;68.30;;;;;;5049642;28;20052;-66
2022/06/28 18:20:57;;;;;;;44.00;10.52;;;33.50;70.50;;;;;;5051071;28;20052;-67
2022/06/28 18:24:01;;;;;;;57.03;11.02;;;33.10;71.70;;;;;;5049737;28;20051;-67
2022/06/28 18:27:05;;;;;;;46.65;11.10;;;32.70;72.60;;;;;;5050524;28;20072;-67
2022/06/28 18:30:11;;;;;;;46.20;10.73;;;32.60;73.40;;;;;;5050193;28;20040;-66
2022/06/28 18:33:14;;;;;;;50.83;10.20;;;32.70;72.90;;;;;;5050879;28;20047;-66
2022/06/28 18:36:18;;;;;;;59.10;12.05;;;33.00;72.30;;;;;;5050577;28;20055;-67
2022/06/28 18:39:22;;;;;;;51.20;11.43;;;33.20;72.20;;;;;;5050891;28;20511;-67
2022/06/28 18:42:26;;;;;;;47.85;12.23;;;33.20;72.30;;;;;;5050181;28;20056;-66
2022/06/28 18:45:30;;;;;;;49.55;12.60;;;33.20;72.70;;;;;;5050753;28;20041;-67
2022/06/28 18:48:35;;;;;;;51.17;12.95;;;33.00;73.00;;;;;;5050837;28;20076;-67
2022/06/28 18:51:42;;;;;;;49.05;12.68;;;32.90;73.30;;;;;;5050558;28;20389;-67
2022/06/28 18:54:46;;;;;;;53.38;13.75;;;32.80;73.10;;;;;;5050912;28;20044;-65
2022/06/28 18:57:50;;;;;;;51.72;14.77;;;32.80;74.20;;;;;;5050550;28;20495;-70
2022/06/28 19:00:54;;;;;;;66.93;14.18;;;32.70;74.50;;;;;;5050713;28;20043;-69
2022/06/28 19:03:58;;;;;;;54.42;15.35;;;32.70;74.70;;;;;;5050682;28;20397;-70
2022/06/28 19:07:05;;;;;;;64.13;13.68;;;32.60;75.10;;;;;;5050543;28;20059;-70
2022/06/28 19:10:10;;;;;;;51.95;14.63;;;32.50;74.30;;;;;;5050381;28;20380;-69
2022/06/28 19:13:14;;;;;;;52.78;14.50;;;32.50;75.10;;;;;;5052267;28;20499;-70
2022/06/28 19:16:18;;;;;;;63.05;16.98;;;32.50;73.90;;;;;;5053728;28;20048;-70
2022/06/28 19:19:23;;;;;;;60.83;17.52;;;32.30;74.40;;;;;;5053818;28;20044;-69
2022/06/28 19:22:27;;;;;;;70.78;19.08;;;32.20;74.70;;;;;;5053810;28;20400;-69
2022/06/28 19:25:31;;;;;;;65.25;14.98;;;31.90;75.30;;;;;;5054017;28;20044;-69
2022/06/28 19:28:35;;;;;;;56.08;15.85;;;31.90;74.50;;;;;;5053583;28;20043;-70
2022/06/28 19:31:40;;;;;;;52.38;13.60;;;32.00;73.40;;;;;;5054027;28;20059;-69
2022/06/28 19:34:44;;;;;;;53.63;14.40;;;32.10;72.60;;;;;;5053884;28;20048;-69
2022/06/28 19:37:48;;;;;;;61.70;14.77;;;32.20;72.50;;;;;;5053462;28;20056;-69
2022/06/28 19:40:53;;;;;;;63.38;15.18;;;32.30;72.20;;;;;;5052826;28;20507;-69
2022/06/28 19:43:57;;;;;;;53.42;16.10;;;32.40;72.20;;;;;;5053649;28;20040;-69
2022/06/28 19:47:01;;;;;;;58.45;16.25;;;32.30;74.10;;;;;;5052414;28;20052;-69
2022/06/28 19:50:06;;;;;;;61.17;15.75;;;32.20;74.40;;;;;;5053256;28;20040;-69
2022/06/28 19:53:09;;;;;;;59.20;15.05;;;32.20;74.90;;;;;;5053199;28;20051;-70
2022/06/28 19:56:13;;;;;;;55.55;14.95;;;32.20;75.00;;;;;;5053444;28;20044;-71
2022/06/28 19:59:18;;;;;;;53.15;13.93;;;32.20;75.00;;;;;;5053315;28;20048;-70
2022/06/28 20:02:23;;;;;;;52.75;13.63;;;32.20;74.00;;;;;;5053300;28;20044;-69
2022/06/28 20:05:34;;;;;;;48.05;12.13;;;32.20;73.90;;;;;;5053075;28;20052;-70
2022/06/28 20:08:38;;;;;;;70.35;13.32;;;32.20;73.50;;;;;;5053236;28;20222;-69
2022/06/28 20:11:42;;;;;;;46.42;9.88;;;32.10;73.50;;;;;;5052950;28;20406;-69
2022/06/28 20:14:46;;;;;;;50.65;10.35;;;32.10;73.20;;;;;;5053118;28;20044;-70
2022/06/28 20:17:50;;;;;;;47.92;11.35;;;32.10;73.10;;;;;;5052814;28;20503;-70